Time;durP1;ratioP1;P1;durP2;ratioP2;P2;SDS_P1;SDS_P2;PMS_P1;PMS_P2;Temp;Humidity;BMP_temperature;BMP_pressure;BME280_temperature;BME280_humidity;BME280_pressure;Samples;Min_cycle;Max_cycle;Signal;HPM_P1;HPM_P2
2023/07/03 00:00:29;;;;;;;18.77;4.90;;;21.20;80.80;;;;;;5013321;28;20080;-72
2023/07/03 00:02:55;;;;;;;22.90;5.85;;;21.20;80.90;;;;;;5013109;28;20471;-72
2023/07/03 00:05:23;;;;;;;20.88;4.68;;;21.20;81.00;;;;;;5013455;28;20022;-72
2023/07/03 00:07:49;;;;;;;20.98;5.40;;;21.20;81.30;;;;;;5013494;28;20018;-72
2023/07/03 00:10:15;;;;;;;21.92;4.95;;;21.20;81.50;;;;;;5013504;28;20123;-72
2023/07/03 00:12:41;;;;;;;21.02;5.50;;;21.10;81.60;;;;;;5013522;28;20056;-72
2023/07/03 00:15:07;;;;;;;21.00;5.38;;;21.10;81.80;;;;;;5013221;28;20033;-72
2023/07/03 00:17:34;;;;;;;22.88;5.03;;;21.10;81.90;;;;;;5013147;28;20034;-72
2023/07/03 00:19:59;;;;;;;24.85;6.10;;;21.10;82.10;;;;;;5013547;28;20022;-72
2023/07/03 00:22:25;;;;;;;17.05;4.90;;;21.10;82.30;;;;;;5013289;28;20022;-72
2023/07/03 00:24:50;;;;;;;24.00;5.75;;;21.10;82.70;;;;;;5013174;28;20034;-72
2023/07/03 00:27:17;;;;;;;24.67;6.18;;;21.00;82.90;;;;;;5013089;28;20044;-72
2023/07/03 00:29:42;;;;;;;18.05;4.78;;;21.00;83.10;;;;;;5013028;28;20084;-72
2023/07/03 00:32:08;;;;;;;24.05;6.32;;;21.00;83.40;;;;;;5013028;28;20025;-72
2023/07/03 00:34:33;;;;;;;17.25;5.25;;;21.00;83.60;;;;;;5013254;28;20026;-72
2023/07/03 00:36:59;;;;;;;21.40;5.95;;;21.00;83.80;;;;;;5013034;28;20483;-72
2023/07/03 00:39:25;;;;;;;23.88;5.75;;;21.00;84.10;;;;;;5013903;28;20038;-72
2023/07/03 00:41:51;;;;;;;19.48;4.80;;;20.90;84.30;;;;;;5016802;28;20088;-72
2023/07/03 00:44:18;;;;;;;20.80;5.85;;;20.90;84.40;;;;;;5015674;28;20030;-73
2023/07/03 00:46:48;;;;;;;20.60;5.00;;;20.90;84.80;;;;;;5016684;28;20014;-72
2023/07/03 00:49:15;;;;;;;25.50;5.53;;;20.90;84.90;;;;;;5016878;28;20497;-72
2023/07/03 00:51:44;;;;;;;20.30;5.40;;;20.90;85.10;;;;;;5016701;28;20087;-72
2023/07/03 00:54:10;;;;;;;22.33;6.05;;;20.80;85.10;;;;;;5016860;28;20030;-72
2023/07/03 00:56:35;;;;;;;18.52;5.47;;;20.80;85.40;;;;;;5016799;28;20030;-72
2023/07/03 00:59:02;;;;;;;17.30;4.78;;;20.80;85.60;;;;;;5016451;28;20034;-72
2023/07/03 01:01:51;;;;;;;20.55;5.53;;;20.80;85.80;;;;;;5016239;28;20095;-72
2023/07/03 01:04:22;;;;;;;23.67;5.72;;;20.80;86.00;;;;;;5016555;28;20026;-72
2023/07/03 01:06:56;;;;;;;19.67;5.40;;;20.80;86.10;;;;;;5016459;28;20014;-72
2023/07/03 01:09:25;;;;;;;19.55;5.40;;;20.80;86.20;;;;;;5016305;28;20481;-72
2023/07/03 01:11:51;;;;;;;24.13;6.22;;;20.70;86.30;;;;;;5016471;28;20075;-72
2023/07/03 01:14:19;;;;;;;17.90;5.20;;;20.70;86.50;;;;;;5016070;28;20101;-72
2023/07/03 01:16:48;;;;;;;23.33;6.20;;;20.70;86.80;;;;;;5016396;28;20422;-72
2023/07/03 01:19:23;;;;;;;23.00;6.10;;;20.70;86.80;;;;;;5016172;28;20034;-72
2023/07/03 01:21:58;;;;;;;21.75;6.03;;;20.70;87.00;;;;;;5016241;28;20032;-72
2023/07/03 01:24:39;;;;;;;23.05;5.30;;;20.70;87.30;;;;;;5016406;28;20152;-74
2023/07/03 01:27:08;;;;;;;24.40;6.60;;;20.70;87.50;;;;;;5015888;28;20034;-72
2023/07/03 01:29:35;;;;;;;21.60;5.47;;;20.60;87.60;;;;;;5015983;28;20109;-72
2023/07/03 01:32:04;;;;;;;21.08;6.07;;;20.60;87.80;;;;;;5016020;28;20128;-72
2023/07/03 01:34:31;;;;;;;16.85;5.32;;;20.60;88.00;;;;;;5016186;28;20030;-72
2023/07/03 01:36:58;;;;;;;24.65;6.65;;;20.50;88.00;;;;;;5014550;28;20076;-72
2023/07/03 01:39:25;;;;;;;23.40;5.80;;;20.50;88.10;;;;;;5015636;28;20034;-72
2023/07/03 01:41:51;;;;;;;26.63;5.88;;;20.50;88.30;;;;;;5015786;28;20065;-73
2023/07/03 01:44:18;;;;;;;19.92;6.32;;;20.50;88.50;;;;;;5015539;28;20026;-72
2023/07/03 01:46:44;;;;;;;27.13;6.57;;;20.50;88.60;;;;;;5015807;28;20479;-72
2023/07/03 01:49:14;;;;;;;22.73;6.45;;;20.40;88.90;;;;;;5015697;28;20077;-72
2023/07/03 01:51:57;;;;;;;20.00;6.00;;;20.40;89.10;;;;;;5015130;28;20105;-72
2023/07/03 01:54:35;;;;;;;23.13;5.68;;;20.40;89.20;;;;;;5015743;28;20033;-72
2023/07/03 01:57:02;;;;;;;22.83;6.03;;;20.40;89.30;;;;;;5015499;28;20029;-72
2023/07/03 01:59:31;;;;;;;23.27;6.28;;;20.40;89.50;;;;;;5015335;28;20033;-72
2023/07/03 02:02:03;;;;;;;19.55;6.35;;;20.40;89.60;;;;;;5015496;28;20446;-73
2023/07/03 02:04:37;;;;;;;22.42;5.93;;;20.40;89.70;;;;;;5015628;28;20095;-72
2023/07/03 02:07:05;;;;;;;20.30;5.75;;;20.40;89.80;;;;;;5015366;28;20033;-72
2023/07/03 02:09:31;;;;;;;22.25;6.00;;;20.30;89.90;;;;;;5015417;28;20053;-72
2023/07/03 02:11:57;;;;;;;24.23;6.43;;;20.40;90.00;;;;;;5015249;28;20026;-72
2023/07/03 02:14:24;;;;;;;22.02;6.55;;;20.30;90.10;;;;;;5015008;28;20025;-72
2023/07/03 02:16:50;;;;;;;24.48;6.60;;;20.30;90.20;;;;;;5015253;28;20111;-72
2023/07/03 02:19:16;;;;;;;23.90;6.28;;;20.20;90.30;;;;;;5015044;28;20040;-73
2023/07/03 02:21:46;;;;;;;23.05;5.35;;;20.20;90.30;;;;;;5015129;28;20026;-72
2023/07/03 02:24:12;;;;;;;27.83;7.10;;;20.20;90.40;;;;;;5013637;28;20034;-72
2023/07/03 02:26:38;;;;;;;21.38;6.43;;;20.20;90.40;;;;;;5014979;28;20108;-72
2023/07/03 02:29:04;;;;;;;23.73;6.75;;;20.20;90.50;;;;;;5014726;28;20108;-72
2023/07/03 02:31:29;;;;;;;22.38;6.70;;;20.10;90.50;;;;;;5014916;28;20482;-72
2023/07/03 02:33:55;;;;;;;23.88;6.60;;;20.10;90.50;;;;;;5014904;28;20029;-73
2023/07/03 02:36:20;;;;;;;23.30;6.55;;;20.10;90.70;;;;;;5014803;28;20429;-72
2023/07/03 02:38:46;;;;;;;26.85;5.95;;;20.10;90.70;;;;;;5013320;28;20029;-72
2023/07/03 02:41:12;;;;;;;26.02;6.32;;;20.10;90.80;;;;;;5014620;28;20034;-71
2023/07/03 02:43:37;;;;;;;19.85;6.30;;;20.10;90.80;;;;;;5014328;28;20057;-72
2023/07/03 02:46:04;;;;;;;22.17;6.78;;;20.10;90.90;;;;;;5014735;28;20049;-72
2023/07/03 02:48:30;;;;;;;24.65;6.80;;;20.10;91.20;;;;;;5014453;28;20463;-72
2023/07/03 02:50:55;;;;;;;23.05;6.20;;;20.10;91.00;;;;;;5014694;28;20018;-72
2023/07/03 02:53:22;;;;;;;24.88;6.18;;;20.00;91.10;;;;;;5014447;28;20166;-72
2023/07/03 02:55:48;;;;;;;19.98;5.93;;;20.10;91.10;;;;;;5014204;28;20026;-72
2023/07/03 02:58:14;;;;;;;23.58;7.25;;;20.10;91.20;;;;;;5014224;28;20030;-71
2023/07/03 03:00:41;;;;;;;26.10;6.50;;;20.10;91.10;;;;;;5014371;28;20471;-70
2023/07/03 03:03:07;;;;;;;24.55;6.88;;;20.10;91.20;;;;;;5013195;28;20034;-71
2023/07/03 03:05:32;;;;;;;18.20;6.35;;;20.00;91.30;;;;;;5014350;28;20041;-72
2023/07/03 03:07:58;;;;;;;21.80;6.50;;;20.00;91.30;;;;;;5014073;28;20570;-70
2023/07/03 03:10:26;;;;;;;19.80;5.90;;;20.00;91.30;;;;;;5014021;28;20092;-72
2023/07/03 03:12:51;;;;;;;23.60;5.38;;;20.00;91.40;;;;;;5012998;28;20026;-72
2023/07/03 03:15:18;;;;;;;26.85;6.97;;;20.00;91.40;;;;;;5012632;28;20038;-71
2023/07/03 03:17:44;;;;;;;22.23;7.15;;;20.00;91.40;;;;;;5014122;28;20022;-72
2023/07/03 03:20:13;;;;;;;20.95;7.72;;;20.00;91.50;;;;;;5013976;28;20083;-72
2023/07/03 03:22:39;;;;;;;22.67;6.68;;;20.00;91.50;;;;;;5012732;28;20037;-72
2023/07/03 03:25:06;;;;;;;19.90;6.10;;;20.00;91.60;;;;;;5013618;28;20026;-72
2023/07/03 03:27:32;;;;;;;22.80;6.60;;;19.90;91.60;;;;;;5013768;28;20022;-72
2023/07/03 03:29:57;;;;;;;24.17;6.50;;;19.90;91.70;;;;;;5013993;28;20436;-72
2023/07/03 03:32:23;;;;;;;22.88;6.45;;;19.90;91.70;;;;;;5013868;28;20026;-72
2023/07/03 03:34:50;;;;;;;21.13;6.38;;;20.00;91.70;;;;;;5013831;28;20148;-72
2023/07/03 03:37:17;;;;;;;22.95;5.97;;;19.90;91.60;;;;;;5010245;28;20132;-72
2023/07/03 03:39:43;;;;;;;21.30;6.00;;;19.90;91.60;;;;;;5010716;28;20037;-73
2023/07/03 03:42:11;;;;;;;20.15;5.82;;;19.90;91.60;;;;;;5004762;28;20113;-72
2023/07/03 03:44:38;;;;;;;24.33;6.35;;;19.90;91.60;;;;;;4993932;28;20041;-72
2023/07/03 03:47:04;;;;;;;17.95;6.13;;;19.90;91.60;;;;;;5005790;28;20018;-73
2023/07/03 03:49:31;;;;;;;21.40;5.75;;;19.90;91.60;;;;;;5007487;28;20390;-73
2023/07/03 03:51:56;;;;;;;19.48;6.20;;;19.90;91.60;;;;;;5006300;28;20038;-72
2023/07/03 03:54:22;;;;;;;26.58;6.80;;;19.80;91.60;;;;;;5006891;28;20025;-72
2023/07/03 03:56:48;;;;;;;21.25;6.60;;;19.80;91.70;;;;;;5011664;28;20108;-72
2023/07/03 03:59:13;;;;;;;20.38;5.95;;;19.80;91.70;;;;;;5000458;28;20121;-72
2023/07/03 04:01:39;;;;;;;22.50;5.93;;;19.80;91.60;;;;;;4992368;28;20033;-72
2023/07/03 04:04:05;;;;;;;17.58;5.88;;;19.80;91.60;;;;;;5004917;28;20034;-72
2023/07/03 04:06:31;;;;;;;22.83;6.18;;;19.70;91.70;;;;;;5012687;28;20029;-72
2023/07/03 04:08:58;;;;;;;19.60;6.43;;;19.70;91.70;;;;;;5012934;28;20032;-72
2023/07/03 04:11:25;;;;;;;19.63;5.82;;;19.70;91.70;;;;;;5013403;28;20034;-72
2023/07/03 04:13:51;;;;;;;18.70;6.22;;;19.70;91.70;;;;;;5013763;28;20026;-72
2023/07/03 04:16:16;;;;;;;22.98;6.22;;;19.70;91.70;;;;;;5017335;28;20041;-73
2023/07/03 04:18:42;;;;;;;21.13;6.50;;;19.70;91.70;;;;;;5016030;28;20026;-72
2023/07/03 04:21:07;;;;;;;21.02;6.03;;;19.70;91.80;;;;;;5016031;28;20084;-72
2023/07/03 04:23:33;;;;;;;20.13;6.07;;;19.60;91.70;;;;;;5017045;28;20098;-73
2023/07/03 04:25:59;;;;;;;26.77;7.47;;;19.70;91.80;;;;;;5017189;28;20025;-73
2023/07/03 04:28:24;;;;;;;16.40;5.25;;;19.70;91.70;;;;;;5017369;28;20490;-73
2023/07/03 04:30:50;;;;;;;23.42;7.03;;;19.70;91.70;;;;;;5017027;28;20383;-73
2023/07/03 04:33:16;;;;;;;22.27;5.93;;;19.60;91.60;;;;;;5017235;28;20030;-73
2023/07/03 04:35:43;;;;;;;21.05;6.05;;;19.70;91.50;;;;;;5017073;28;20045;-72
2023/07/03 04:38:09;;;;;;;18.08;5.75;;;19.70;91.40;;;;;;5017077;28;20200;-72
2023/07/03 04:40:35;;;;;;;16.63;4.97;;;19.70;91.30;;;;;;5015560;28;20389;-73
2023/07/03 04:43:01;;;;;;;19.02;5.47;;;19.70;91.20;;;;;;5017026;28;20531;-73
2023/07/03 04:45:28;;;;;;;19.60;5.60;;;19.70;91.00;;;;;;5016791;28;20112;-73
2023/07/03 04:47:53;;;;;;;17.38;6.28;;;19.70;91.00;;;;;;5016887;28;20025;-73
2023/07/03 04:50:22;;;;;;;19.08;5.60;;;19.70;90.90;;;;;;5015563;28;20484;-72
2023/07/03 04:52:49;;;;;;;18.75;5.68;;;19.70;90.80;;;;;;5006330;28;20025;-73
2023/07/03 04:55:17;;;;;;;18.52;5.20;;;19.70;90.60;;;;;;5016757;28;20080;-73
2023/07/03 04:57:43;;;;;;;19.42;5.75;;;19.70;91.00;;;;;;5013710;28;20089;-71
2023/07/03 05:00:15;;;;;;;17.13;5.05;;;19.70;90.80;;;;;;5007469;28;20025;-72
2023/07/03 05:02:45;;;;;;;15.77;5.47;;;19.70;90.60;;;;;;5016040;28;20025;-72
2023/07/03 05:05:12;;;;;;;14.50;4.28;;;19.80;90.60;;;;;;5015105;28;20030;-73
2023/07/03 05:07:39;;;;;;;16.98;4.60;;;19.70;90.30;;;;;;4996687;28;20088;-72
2023/07/03 05:10:06;;;;;;;18.30;5.32;;;19.70;90.20;;;;;;4997127;28;20022;-72
2023/07/03 05:12:32;;;;;;;17.48;5.35;;;19.70;90.10;;;;;;5012839;28;20026;-72
2023/07/03 05:14:57;;;;;;;17.83;5.13;;;19.80;89.30;;;;;;5016273;28;20682;-73
2023/07/03 05:17:23;;;;;;;16.25;5.57;;;19.80;89.20;;;;;;5016027;28;20026;-73
2023/07/03 05:19:50;;;;;;;17.60;4.40;;;19.80;89.20;;;;;;5016213;28;20141;-71
2023/07/03 05:22:15;;;;;;;15.93;4.68;;;19.80;89.30;;;;;;5014820;28;20025;-72
2023/07/03 05:24:41;;;;;;;20.27;5.55;;;19.80;89.10;;;;;;5016213;28;20108;-72
2023/07/03 05:27:07;;;;;;;16.98;4.55;;;19.80;88.90;;;;;;5013611;28;20022;-72
2023/07/03 05:29:33;;;;;;;11.93;4.07;;;19.80;88.70;;;;;;5016117;28;20026;-72
2023/07/03 05:32:00;;;;;;;14.25;4.05;;;19.80;88.90;;;;;;5016054;28;20030;-72
2023/07/03 05:34:26;;;;;;;17.92;4.78;;;19.80;89.00;;;;;;5016136;28;20399;-72
2023/07/03 05:36:53;;;;;;;12.68;4.68;;;19.80;88.60;;;;;;5015668;28;20072;-72
2023/07/03 05:39:18;;;;;;;15.38;4.32;;;19.80;88.40;;;;;;5015792;28;20065;-72
2023/07/03 05:41:44;;;;;;;17.67;4.78;;;19.80;88.10;;;;;;5015575;28;20085;-72
2023/07/03 05:44:09;;;;;;;17.55;4.47;;;19.80;88.10;;;;;;5014635;28;20026;-72
2023/07/03 05:46:35;;;;;;;16.58;4.80;;;19.80;87.80;;;;;;5015673;28;20034;-72
2023/07/03 05:49:00;;;;;;;15.75;3.75;;;19.80;87.40;;;;;;5015758;28;20431;-72
2023/07/03 05:51:26;;;;;;;15.25;4.55;;;19.80;87.60;;;;;;5015234;28;20072;-72
2023/07/03 05:53:53;;;;;;;19.25;4.75;;;19.90;87.50;;;;;;5014412;28;20075;-73
2023/07/03 05:56:19;;;;;;;12.52;3.83;;;19.80;87.50;;;;;;5015565;28;20022;-73
2023/07/03 05:58:44;;;;;;;10.82;4.00;;;19.80;87.50;;;;;;5015166;28;20494;-74
2023/07/03 06:01:10;;;;;;;11.82;4.32;;;19.80;87.80;;;;;;5015824;28;20030;-73
2023/07/03 06:03:35;;;;;;;15.68;4.15;;;19.90;88.10;;;;;;5015351;28;20101;-74
2023/07/03 06:06:04;;;;;;;13.57;4.03;;;19.80;88.00;;;;;;5008805;28;20047;-74
2023/07/03 06:08:30;;;;;;;17.15;4.80;;;19.90;88.40;;;;;;5015170;28;20030;-72
2023/07/03 06:10:56;;;;;;;20.80;4.57;;;19.90;88.10;;;;;;5009846;28;20383;-72
2023/07/03 06:13:22;;;;;;;14.45;4.40;;;19.80;88.20;;;;;;5009900;28;20467;-73
2023/07/03 06:15:47;;;;;;;18.98;5.45;;;19.90;88.30;;;;;;5014212;28;20546;-73
2023/07/03 06:18:14;;;;;;;12.63;4.03;;;19.90;88.60;;;;;;5012386;28;20491;-73
2023/07/03 06:20:40;;;;;;;19.67;5.22;;;19.90;89.10;;;;;;5014591;28;20022;-72
2023/07/03 06:23:06;;;;;;;20.27;6.05;;;19.90;89.40;;;;;;5015105;28;20072;-72
2023/07/03 06:25:31;;;;;;;21.63;5.32;;;19.90;89.80;;;;;;5015133;28;20497;-72
2023/07/03 06:27:57;;;;;;;21.25;6.78;;;19.90;90.20;;;;;;5014860;28;20046;-72
2023/07/03 06:30:22;;;;;;;19.15;5.53;;;19.90;90.30;;;;;;5015013;28;20494;-73
2023/07/03 06:32:48;;;;;;;22.33;5.82;;;19.90;90.60;;;;;;5001142;28;20034;-73
2023/07/03 06:35:14;;;;;;;19.48;5.63;;;20.00;90.90;;;;;;5016857;28;20033;-72
2023/07/03 06:37:40;;;;;;;21.23;5.82;;;19.90;91.00;;;;;;5010819;28;20022;-72
2023/07/03 06:40:10;;;;;;;19.40;6.03;;;20.00;91.20;;;;;;4995033;28;20046;-72
2023/07/03 06:42:36;;;;;;;21.05;6.65;;;20.00;91.50;;;;;;5032678;28;20026;-73
2023/07/03 06:45:02;;;;;;;21.55;7.07;;;20.00;91.70;;;;;;5031584;28;20026;-72
2023/07/03 06:47:28;;;;;;;17.40;5.85;;;20.00;91.80;;;;;;5010392;28;20025;-73
2023/07/03 06:49:54;;;;;;;23.38;6.57;;;20.00;91.50;;;;;;5012768;28;20029;-74
2023/07/03 06:52:19;;;;;;;16.85;5.85;;;20.00;91.70;;;;;;5014649;28;20030;-73
2023/07/03 06:54:47;;;;;;;21.02;6.88;;;20.00;91.80;;;;;;5014276;28;20375;-73
2023/07/03 06:57:13;;;;;;;18.45;5.97;;;20.00;91.90;;;;;;5012555;28;20025;-74
2023/07/03 06:59:39;;;;;;;14.27;6.13;;;20.00;92.10;;;;;;5003975;28;20426;-73
2023/07/03 07:02:06;;;;;;;16.13;6.13;;;20.10;92.10;;;;;;5014494;28;20463;-74
2023/07/03 07:04:32;;;;;;;13.88;4.85;;;20.10;92.00;;;;;;5006560;28;20032;-74
2023/07/03 07:06:57;;;;;;;12.73;4.82;;;20.10;91.40;;;;;;5009541;28;20022;-73
2023/07/03 07:09:23;;;;;;;12.13;4.20;;;20.20;91.00;;;;;;5014085;28;20517;-72
2023/07/03 07:11:49;;;;;;;15.43;4.60;;;20.20;90.90;;;;;;5012842;28;20599;-72
2023/07/03 07:14:14;;;;;;;11.73;4.57;;;20.20;90.90;;;;;;5014142;28;20122;-73
2023/07/03 07:16:42;;;;;;;15.13;4.70;;;20.30;90.80;;;;;;5014129;28;20422;-74
2023/07/03 07:19:09;;;;;;;14.40;5.03;;;20.30;90.80;;;;;;5013754;28;20391;-73
2023/07/03 07:21:38;;;;;;;12.23;4.63;;;20.30;90.80;;;;;;5012736;28;20018;-72
2023/07/03 07:24:19;;;;;;;14.07;5.38;;;20.30;90.80;;;;;;4996435;28;20476;-72
2023/07/03 07:26:46;;;;;;;13.48;5.35;;;20.40;90.70;;;;;;4994029;28;20030;-73
2023/07/03 07:29:12;;;;;;;14.00;4.63;;;20.40;90.60;;;;;;5012340;28;20021;-73
2023/07/03 07:31:38;;;;;;;14.15;4.45;;;20.40;90.60;;;;;;5013656;28;20022;-72
2023/07/03 07:34:05;;;;;;;15.43;5.15;;;20.40;90.50;;;;;;5013394;28;20030;-72
2023/07/03 07:36:32;;;;;;;15.35;5.15;;;20.50;90.50;;;;;;5013910;28;20026;-73
2023/07/03 07:39:00;;;;;;;15.77;4.85;;;20.50;90.30;;;;;;5013335;28;20030;-73
2023/07/03 07:41:26;;;;;;;16.17;4.53;;;20.50;90.30;;;;;;5013404;28;20030;-73
2023/07/03 07:43:52;;;;;;;13.70;4.97;;;20.50;90.30;;;;;;5012039;28;20033;-73
2023/07/03 07:46:19;;;;;;;11.23;4.78;;;20.50;90.20;;;;;;5013568;28;20068;-73
2023/07/03 07:48:47;;;;;;;12.85;4.78;;;20.60;90.20;;;;;;5013207;28;20026;-73
2023/07/03 07:51:13;;;;;;;12.85;5.43;;;20.60;90.20;;;;;;5013579;28;20022;-72
2023/07/03 07:53:39;;;;;;;11.90;4.78;;;20.60;90.20;;;;;;5013693;28;20030;-73
2023/07/03 07:56:07;;;;;;;13.77;4.38;;;20.60;90.20;;;;;;5013340;28;20430;-73
2023/07/03 07:58:33;;;;;;;12.77;5.00;;;20.70;89.80;;;;;;5013568;28;20121;-73
2023/07/03 08:00:59;;;;;;;14.82;5.65;;;20.70;89.90;;;;;;5013067;28;20026;-73
2023/07/03 08:03:25;;;;;;;15.68;4.80;;;20.70;90.00;;;;;;5013427;28;20029;-73
2023/07/03 08:06:03;;;;;;;14.23;4.90;;;20.80;90.00;;;;;;5013197;28;20498;-73
2023/07/03 08:08:30;;;;;;;12.68;4.32;;;20.80;89.80;;;;;;5013586;28;20018;-74
2023/07/03 08:10:58;;;;;;;17.55;5.82;;;20.80;89.70;;;;;;5011297;28;20044;-73
2023/07/03 08:13:24;;;;;;;18.35;4.68;;;20.80;89.60;;;;;;5008967;28;20023;-73
2023/07/03 08:15:51;;;;;;;15.63;5.28;;;20.90;89.60;;;;;;5008599;28;20030;-73
2023/07/03 08:18:18;;;;;;;13.20;5.07;;;20.90;89.60;;;;;;5015840;28;20022;-73
2023/07/03 08:20:44;;;;;;;15.15;4.63;;;20.90;89.50;;;;;;5032410;28;20025;-73
2023/07/03 08:23:10;;;;;;;12.40;4.18;;;21.00;89.40;;;;;;5015256;28;20026;-72
2023/07/03 08:25:36;;;;;;;12.55;4.20;;;21.00;89.30;;;;;;5010834;28;20064;-72
2023/07/03 08:28:02;;;;;;;13.40;4.32;;;21.00;89.20;;;;;;4995752;28;20060;-72
2023/07/03 08:30:28;;;;;;;12.25;3.95;;;21.00;88.90;;;;;;4996517;28;20054;-71
2023/07/03 08:32:54;;;;;;;13.02;4.00;;;21.00;87.10;;;;;;5005626;28;20057;-72
2023/07/03 08:35:20;;;;;;;10.52;3.72;;;21.00;87.90;;;;;;5003468;28;20027;-72
2023/07/03 08:37:45;;;;;;;9.73;3.20;;;21.10;87.70;;;;;;5007051;28;20026;-71
2023/07/03 08:40:17;;;;;;;25.98;4.07;;;21.10;86.80;;;;;;5018056;28;20033;-73
2023/07/03 08:42:53;;;;;;;13.67;3.40;;;21.10;86.40;;;;;;5004748;28;20475;-72
2023/07/03 08:45:26;;;;;;;11.80;3.00;;;21.10;85.80;;;;;;4999697;28;20297;-71
2023/07/03 08:47:53;;;;;;;14.68;3.33;;;21.10;85.50;;;;;;5000957;28;20019;-72
2023/07/03 08:50:22;;;;;;;9.10;3.10;;;21.20;85.50;;;;;;5006716;28;20185;-72
2023/07/03 08:52:55;;;;;;;9.93;2.60;;;21.20;84.50;;;;;;5000278;28;20042;-72
2023/07/03 08:55:29;;;;;;;9.68;2.70;;;21.20;84.80;;;;;;5005863;28;20065;-73
2023/07/03 08:57:55;;;;;;;9.93;3.45;;;21.20;84.50;;;;;;5003700;28;20028;-72
2023/07/03 09:00:21;;;;;;;13.52;3.15;;;21.30;84.50;;;;;;5001024;28;20459;-72
2023/07/03 09:03:05;;;;;;;11.02;3.10;;;21.30;84.30;;;;;;4999246;28;20969;-72
2023/07/03 09:05:50;;;;;;;8.18;2.90;;;21.30;84.40;;;;;;5005036;28;20022;-72
2023/07/03 09:08:26;;;;;;;9.13;2.83;;;21.30;84.20;;;;;;4996849;28;20093;-72
2023/07/03 09:10:51;;;;;;;12.82;2.70;;;21.40;83.50;;;;;;4994907;28;20030;-72
2023/07/03 09:13:34;;;;;;;9.25;2.65;;;21.40;83.40;;;;;;5008359;28;20037;-72
2023/07/03 09:16:09;;;;;;;11.27;2.95;;;21.40;83.50;;;;;;5001628;28;20062;-72
2023/07/03 09:18:41;;;;;;;8.55;2.22;;;21.40;83.10;;;;;;5012309;28;20026;-72
2023/07/03 09:21:09;;;;;;;7.68;2.47;;;21.40;82.60;;;;;;5009703;28;20021;-72
2023/07/03 09:23:42;;;;;;;7.60;2.30;;;21.40;82.10;;;;;;5005404;28;20049;-71
2023/07/03 09:26:30;;;;;;;7.53;2.20;;;21.50;82.20;;;;;;5002744;28;20030;-71
2023/07/03 09:28:58;;;;;;;7.35;1.98;;;21.50;82.30;;;;;;5005832;28;20045;-72
2023/07/03 09:31:28;;;;;;;10.32;2.60;;;21.50;81.60;;;;;;5012885;28;20030;-72
2023/07/03 09:33:54;;;;;;;7.03;1.95;;;21.50;80.90;;;;;;5001063;28;20026;-72
2023/07/03 09:36:24;;;;;;;8.95;2.08;;;21.60;82.00;;;;;;5002108;28;20034;-72
2023/07/03 09:38:50;;;;;;;9.85;2.47;;;21.60;81.80;;;;;;4997294;28;20069;-72
2023/07/03 09:41:24;;;;;;;6.43;2.40;;;21.60;81.30;;;;;;4999562;28;20361;-72
2023/07/03 09:43:53;;;;;;;11.05;2.22;;;21.60;81.00;;;;;;5004235;28;20034;-72
2023/07/03 09:46:20;;;;;;;9.27;2.42;;;21.60;80.50;;;;;;5000464;28;20050;-72
2023/07/03 09:48:46;;;;;;;7.55;2.40;;;21.60;80.30;;;;;;5012091;28;20029;-72
2023/07/03 09:51:27;;;;;;;8.50;2.25;;;21.70;80.10;;;;;;5008531;28;20101;-72
2023/07/03 09:53:56;;;;;;;7.30;2.45;;;21.70;80.40;;;;;;5006552;28;20041;-72
2023/07/03 09:56:24;;;;;;;7.53;2.13;;;21.70;79.80;;;;;;5007437;28;20025;-73
2023/07/03 09:58:54;;;;;;;6.47;1.80;;;21.70;79.30;;;;;;5001160;28;20037;-72
2023/07/03 10:01:26;;;;;;;6.63;1.90;;;21.70;79.20;;;;;;5002995;28;20026;-71
2023/07/03 10:04:04;;;;;;;7.60;1.67;;;21.80;78.80;;;;;;4997902;28;20031;-72
2023/07/03 10:06:30;;;;;;;9.00;2.30;;;21.80;78.70;;;;;;5001994;28;20029;-72
2023/07/03 10:09:03;;;;;;;7.13;1.83;;;21.80;78.60;;;;;;4999955;28;20022;-73
2023/07/03 10:11:39;;;;;;;7.97;2.50;;;21.80;78.50;;;;;;5001412;28;20479;-72
2023/07/03 10:14:08;;;;;;;7.78;2.08;;;21.80;78.50;;;;;;4998225;28;20021;-72
2023/07/03 10:16:35;;;;;;;5.85;1.85;;;21.90;78.50;;;;;;5005708;28;20117;-72
2023/07/03 10:19:03;;;;;;;8.80;2.03;;;21.80;78.50;;;;;;5000157;28;20034;-74
2023/07/03 10:21:30;;;;;;;8.50;2.75;;;21.80;78.10;;;;;;5003469;28;20025;-73
2023/07/03 10:23:58;;;;;;;11.73;2.28;;;21.90;78.00;;;;;;4997134;28;20026;-73
2023/07/03 10:26:32;;;;;;;5.78;1.58;;;21.90;74.60;;;;;;5002724;28;20214;-73
2023/07/03 10:29:08;;;;;;;8.70;2.17;;;21.90;73.50;;;;;;4992700;28;20045;-73
2023/07/03 10:31:41;;;;;;;6.18;2.00;;;22.00;73.80;;;;;;4995297;28;20102;-73
2023/07/03 10:34:19;;;;;;;7.80;2.08;;;22.00;74.70;;;;;;4994199;28;20026;-73
2023/07/03 10:36:49;;;;;;;11.93;2.58;;;22.10;74.30;;;;;;5006588;28;20029;-73
2023/07/03 10:39:23;;;;;;;10.30;2.47;;;22.00;73.90;;;;;;5012039;28;20030;-73
2023/07/03 10:41:57;;;;;;;9.18;1.75;;;22.10;74.50;;;;;;5011025;28;20053;-73
2023/07/03 10:44:27;;;;;;;6.78;1.98;;;22.10;74.50;;;;;;5008309;28;20026;-75
2023/07/03 10:47:04;;;;;;;7.57;2.50;;;22.20;74.00;;;;;;5005713;28;20022;-74
2023/07/03 10:49:32;;;;;;;7.07;1.63;;;22.20;74.70;;;;;;5010227;28;20034;-75
2023/07/03 10:51:58;;;;;;;7.68;1.98;;;22.20;74.60;;;;;;5005276;28;20092;-74
2023/07/03 10:54:37;;;;;;;8.32;1.90;;;22.20;74.70;;;;;;5004692;28;20022;-73
2023/07/03 10:57:08;;;;;;;6.38;2.25;;;22.20;74.80;;;;;;4994416;28;20160;-74
2023/07/03 10:59:42;;;;;;;8.07;2.17;;;22.20;74.90;;;;;;5009384;28;20022;-74
2023/07/03 11:02:35;;;;;;;7.35;1.60;;;22.20;74.90;;;;;;5011085;28;20022;-73
2023/07/03 11:05:15;;;;;;;10.48;2.45;;;22.30;75.00;;;;;;5008326;28;20044;-72
2023/07/03 11:08:07;;;;;;;9.30;1.67;;;22.30;75.20;;;;;;4993160;28;20041;-71
2023/07/03 11:10:36;;;;;;;9.23;2.17;;;22.30;75.10;;;;;;4994318;28;20045;-72
2023/07/03 11:13:18;;;;;;;8.25;2.08;;;22.30;75.60;;;;;;5010427;28;20041;-72
2023/07/03 11:16:01;;;;;;;8.40;2.50;;;22.30;74.90;;;;;;5000768;28;20014;-74
2023/07/03 11:18:41;;;;;;;5.97;1.67;;;22.40;75.00;;;;;;5003892;28;20129;-70
2023/07/03 11:21:41;;;;;;;7.82;2.20;;;22.40;74.00;;;;;;5009857;28;20018;-72
2023/07/03 11:24:27;;;;;;;6.57;1.83;;;22.40;74.10;;;;;;5002679;28;20081;-71
2023/07/03 11:27:11;;;;;;;12.60;2.20;;;22.40;75.00;;;;;;5004548;28;20037;-74
2023/07/03 11:29:37;;;;;;;10.57;2.45;;;22.40;75.40;;;;;;4998650;28;20045;-68
2023/07/03 11:32:07;;;;;;;7.82;2.80;;;22.40;76.00;;;;;;5009841;28;20022;-70
2023/07/03 11:34:34;;;;;;;10.90;2.55;;;22.50;77.40;;;;;;5000953;28;20026;-71
2023/07/03 11:37:00;;;;;;;9.55;2.33;;;22.50;79.30;;;;;;5003710;28;20026;-67
2023/07/03 11:39:33;;;;;;;9.35;2.85;;;22.50;81.50;;;;;;5006566;28;20042;-69
2023/07/03 11:42:01;;;;;;;9.05;3.10;;;22.50;81.60;;;;;;5003549;28;20070;-69
2023/07/03 11:44:27;;;;;;;8.70;2.58;;;22.60;84.90;;;;;;4998056;28;20042;-72
2023/07/03 11:46:56;;;;;;;11.50;2.47;;;22.60;84.30;;;;;;4999755;28;20478;-73
2023/07/03 11:49:29;;;;;;;10.02;2.83;;;22.70;85.90;;;;;;4993763;28;20034;-71
2023/07/03 11:52:01;;;;;;;12.93;2.92;;;22.70;86.00;;;;;;5004930;28;20083;-69
2023/07/03 11:54:29;;;;;;;10.67;2.80;;;22.70;86.30;;;;;;4999714;28;20045;-76
2023/07/03 11:57:25;;;;;;;9.43;2.20;;;22.70;86.40;;;;;;4999227;28;20076;-74
2023/07/03 11:59:50;;;;;;;9.52;2.95;;;22.70;84.30;;;;;;5002147;28;20049;-73
2023/07/03 12:02:16;;;;;;;9.05;1.88;;;22.70;84.80;;;;;;5007601;28;20072;-73
2023/07/03 12:04:45;;;;;;;9.73;2.20;;;22.60;82.20;;;;;;5004430;28;20468;-72
2023/07/03 12:07:21;;;;;;;10.13;1.60;;;22.60;82.10;;;;;;5001518;28;20068;-75
2023/07/03 12:09:48;;;;;;;9.23;1.95;;;22.60;81.10;;;;;;4993211;28;20384;-72
2023/07/03 12:12:24;;;;;;;10.88;2.05;;;22.60;80.60;;;;;;4996702;28;20084;-77
2023/07/03 12:14:57;;;;;;;10.80;2.00;;;22.60;80.00;;;;;;5005724;28;20030;-73
2023/07/03 12:17:34;;;;;;;10.48;2.20;;;22.60;79.30;;;;;;5005869;28;20030;-73
2023/07/03 12:20:19;;;;;;;11.40;2.03;;;22.60;78.90;;;;;;5001404;28;20045;-72
2023/07/03 12:22:50;;;;;;;7.90;1.77;;;22.60;79.10;;;;;;4999495;28;20022;-73
2023/07/03 12:25:26;;;;;;;11.52;1.95;;;22.60;78.60;;;;;;5002228;28;20038;-73
2023/07/03 12:27:53;;;;;;;10.05;1.67;;;22.70;78.40;;;;;;4994941;28;20048;-73
2023/07/03 12:30:29;;;;;;;6.25;1.85;;;22.70;78.40;;;;;;4995633;28;20022;-72
2023/07/03 12:32:56;;;;;;;10.00;1.67;;;22.70;78.40;;;;;;4992796;28;20037;-72
2023/07/03 12:35:25;;;;;;;7.80;2.35;;;22.70;78.20;;;;;;4998338;28;20017;-71
2023/07/03 12:37:58;;;;;;;11.07;2.00;;;22.60;78.00;;;;;;5011511;28;20037;-69
2023/07/03 12:40:25;;;;;;;6.78;2.00;;;22.70;77.90;;;;;;5009961;28;20509;-68
2023/07/03 12:42:54;;;;;;;9.02;2.00;;;22.70;77.40;;;;;;5010335;28;20034;-73
2023/07/03 12:45:29;;;;;;;14.70;1.73;;;22.70;77.10;;;;;;5001525;28;20113;-74